Terminal Aerodrome Forecast
Issued by NWS

Home | Current Version | Previous Version | Text Only | Print | Product List | Glossary On
Versions: 1 2 3 4 5 6 7 8 9 10 11 12 13
000
FTUS44 KTSA 290500
TAFRVS
TAF
KRVS 290520Z 2906/3006 14010KT P6SM SKC
     FM291400 17012G18KT P6SM BKN250
     FM291800 24008KT P6SM BKN120
     FM292100 35008KT P6SM BKN100
     FM300300 01003KT P6SM SCT120=

USA.gov is the U.S. government's official web portal to all federal, state and local government web resources and services.